createdAt,value
2022-09-21T00:01:20.789Z,13.36
2022-09-21T00:03:49.307Z,13.31
2022-09-21T00:06:19.993Z,13.27
2022-09-21T00:08:48.513Z,13.34
2022-09-21T00:11:18.014Z,13.35
2022-09-21T00:13:46.716Z,13.33
2022-09-21T00:16:16.271Z,13.28
2022-09-21T00:18:44.864Z,13.25
2022-09-21T00:21:14.369Z,13.32
2022-09-21T00:23:43.857Z,13.22
2022-09-21T00:26:12.948Z,13.10
2022-09-21T00:28:41.325Z,13.17
2022-09-21T00:31:12.025Z,13.14
2022-09-21T00:33:40.232Z,13.14
2022-09-21T00:36:10.221Z,13.13
2022-09-21T00:38:38.489Z,13.04
2022-09-21T00:41:09.048Z,13.06
2022-09-21T00:43:37.756Z,12.99
2022-09-21T00:46:07.606Z,12.93
2022-09-21T00:48:35.457Z,12.98
2022-09-21T00:51:07.828Z,13.01
2022-09-21T00:53:36.274Z,12.90
2022-09-21T00:56:06.781Z,13.03
2022-09-21T00:58:38.597Z,12.99
2022-09-21T01:01:06.431Z,12.92
2022-09-21T01:03:34.304Z,12.97
2022-09-21T01:06:03.502Z,12.97
2022-09-21T01:08:31.496Z,12.91
2022-09-21T01:11:26.684Z,12.88
2022-09-21T01:14:07.872Z,12.84
2022-09-21T01:16:40.341Z,12.91
2022-09-21T01:19:20.404Z,12.89
2022-09-21T01:21:54.364Z,12.90
2022-09-21T01:24:43.713Z,12.86
2022-09-21T01:27:26.628Z,12.85
2022-09-21T01:29:59.142Z,12.84
2022-09-21T01:32:30.058Z,12.86
2022-09-21T01:35:02.976Z,12.76
2022-09-21T01:37:34.815Z,12.78
2022-09-21T01:40:07.329Z,12.72
2022-09-21T01:42:35.870Z,12.74
2022-09-21T01:45:07.971Z,12.79
2022-09-21T01:47:37.301Z,12.70
2022-09-21T01:50:07.943Z,12.66
2022-09-21T01:52:38.912Z,12.61
2022-09-21T01:55:10.148Z,12.61
2022-09-21T01:57:42.626Z,12.60
2022-09-21T02:00:13.128Z,12.53
2022-09-21T02:02:45.961Z,12.59
2022-09-21T02:05:16.372Z,12.57
2022-09-21T02:07:44.343Z,12.55
2022-09-21T02:10:16.964Z,12.49
2022-09-21T02:12:45.421Z,12.60
2022-09-21T02:15:14.688Z,12.60
2022-09-21T02:17:48.209Z,12.51
2022-09-21T02:20:19.711Z,12.44
2022-09-21T02:23:03.482Z,12.39
2022-09-21T02:25:41.136Z,12.36
2022-09-21T02:28:13.648Z,12.32
2022-09-21T02:30:47.424Z,12.30
2022-09-21T02:33:20.951Z,12.33
2022-09-21T02:35:52.003Z,12.32
2022-09-21T02:38:26.374Z,12.33
2022-09-21T02:40:56.924Z,12.32
2022-09-21T02:43:28.874Z,12.28
2022-09-21T02:46:00.929Z,12.29
2022-09-21T02:48:33.493Z,12.14
2022-09-21T02:51:05.511Z,12.12
2022-09-21T02:53:36.204Z,12.16
2022-09-21T02:56:07.130Z,12.19
2022-09-21T02:58:37.404Z,12.13
2022-09-21T03:01:07.487Z,12.06
2022-09-21T03:03:35.820Z,12.14
2022-09-21T03:06:03.704Z,11.99
2022-09-21T03:08:31.745Z,11.95
2022-09-21T03:10:59.464Z,12.03
2022-09-21T03:13:27.465Z,11.93
2022-09-21T03:16:00.971Z,11.86
2022-09-21T03:18:30.616Z,11.81
2022-09-21T03:20:58.588Z,11.84
2022-09-21T03:23:26.562Z,11.90
2022-09-21T03:25:54.550Z,11.92
2022-09-21T03:28:22.876Z,11.94
2022-09-21T03:30:51.828Z,11.90
2022-09-21T03:33:20.198Z,11.88
2022-09-21T03:35:50.245Z,11.90
2022-09-21T03:38:18.203Z,11.91
2022-09-21T03:40:47.076Z,11.74
2022-09-21T03:43:14.841Z,11.77
2022-09-21T03:45:43.030Z,11.80
2022-09-21T03:48:12.024Z,11.78
2022-09-21T03:50:40.084Z,11.83
2022-09-21T03:53:10.231Z,11.63
2022-09-21T03:55:38.056Z,11.72
2022-09-21T03:58:05.809Z,11.73
2022-09-21T04:00:34.100Z,11.73
2022-09-21T04:03:03.042Z,11.64
2022-09-21T04:05:30.753Z,11.68
2022-09-21T04:07:58.484Z,11.71
2022-09-21T04:10:33.173Z,11.64
2022-09-21T04:13:03.031Z,11.70
2022-09-21T04:15:31.205Z,11.65
2022-09-21T04:17:59.354Z,11.68
2022-09-21T04:20:27.090Z,11.68
2022-09-21T04:22:54.811Z,11.58
2022-09-21T04:25:22.546Z,11.55
2022-09-21T04:27:52.242Z,11.57
2022-09-21T04:30:20.447Z,11.52
2022-09-21T04:32:48.161Z,11.52
2022-09-21T04:35:15.921Z,11.51
2022-09-21T04:37:43.765Z,11.57
2022-09-21T04:40:11.766Z,11.55
2022-09-21T04:42:39.471Z,11.54
2022-09-21T04:45:12.131Z,11.49
2022-09-21T04:47:39.837Z,11.48
2022-09-21T04:50:08.696Z,11.46
2022-09-21T04:52:36.525Z,11.35
2022-09-21T04:55:04.741Z,11.34
2022-09-21T04:57:32.456Z,11.26
2022-09-21T05:00:00.230Z,11.32
2022-09-21T05:02:30.957Z,11.28
2022-09-21T05:04:58.685Z,11.32
2022-09-21T05:07:26.405Z,11.24
2022-09-21T05:10:06.317Z,11.29
2022-09-21T05:12:38.514Z,11.29
2022-09-21T05:15:10.297Z,11.21
2022-09-21T05:17:39.368Z,11.24
2022-09-21T05:20:07.700Z,11.15
2022-09-21T05:22:37.308Z,11.23
2022-09-21T05:25:05.861Z,11.12
2022-09-21T05:27:33.585Z,11.13
2022-09-21T05:30:01.845Z,11.16
2022-09-21T05:32:33.860Z,11.21
2022-09-21T05:35:08.899Z,11.17
2022-09-21T05:37:46.768Z,11.12
2022-09-21T05:40:15.585Z,11.05
2022-09-21T05:42:43.913Z,11.06
2022-09-21T05:45:15.589Z,11.10
2022-09-21T05:47:52.914Z,10.97
2022-09-21T05:50:35.125Z,10.82
2022-09-21T05:53:14.168Z,10.83
2022-09-21T05:55:46.356Z,10.84
2022-09-21T05:58:22.518Z,10.87
2022-09-21T06:01:10.096Z,10.95
2022-09-21T06:03:38.609Z,10.95
2022-09-21T06:06:09.064Z,11.03
2022-09-21T06:08:37.057Z,10.87
2022-09-21T06:11:05.019Z,10.91
2022-09-21T06:13:32.894Z,11.07
2022-09-21T06:16:08.807Z,11.01
2022-09-21T06:18:38.282Z,10.93
2022-09-21T06:21:08.239Z,10.99
2022-09-21T06:23:36.580Z,10.89
2022-09-21T06:26:05.668Z,10.96
2022-09-21T06:28:33.507Z,11.00
2022-09-21T06:31:03.062Z,11.05
2022-09-21T06:33:30.930Z,11.08
2022-09-21T06:36:00.229Z,11.05
2022-09-21T06:38:31.830Z,10.91
2022-09-21T06:41:02.828Z,11.05
2022-09-21T06:43:31.082Z,10.96
2022-09-21T06:46:00.221Z,11.11
2022-09-21T06:48:31.051Z,11.22
2022-09-21T06:50:59.777Z,11.30
2022-09-21T06:53:27.882Z,11.35
2022-09-21T06:56:03.309Z,11.45
2022-09-21T06:58:31.941Z,11.25
2022-09-21T07:00:59.926Z,11.42
2022-09-21T07:03:31.213Z,11.72
2022-09-21T07:05:59.047Z,11.82
2022-09-21T07:11:16.396Z,12.52
2022-09-21T07:13:45.410Z,11.89
2022-09-21T07:16:14.324Z,11.89
2022-09-21T07:18:44.182Z,11.99
2022-09-21T07:21:13.073Z,12.00
2022-09-21T07:23:40.921Z,12.43
2022-09-21T07:26:11.136Z,12.74
2022-09-21T07:28:40.657Z,12.50
2022-09-21T07:31:10.097Z,12.88
2022-09-21T07:33:38.535Z,12.79
2022-09-21T07:36:10.480Z,12.81
2022-09-21T07:38:39.734Z,13.19
2022-09-21T07:41:07.877Z,13.46
2022-09-21T07:43:35.613Z,13.83
2022-09-21T07:46:04.756Z,13.90
2022-09-21T07:48:32.548Z,14.10
2022-09-21T07:51:06.085Z,13.79
2022-09-21T07:53:34.180Z,13.86
2022-09-21T07:56:03.524Z,14.18
2022-09-21T07:58:49.274Z,14.40
2022-09-21T08:01:18.837Z,14.55
2022-09-21T08:03:49.767Z,14.66
2022-09-21T08:06:17.628Z,14.41
2022-09-21T08:08:47.962Z,14.82
2022-09-21T08:11:16.483Z,14.57
2022-09-21T08:13:44.571Z,14.72
2022-09-21T08:16:12.824Z,14.78
2022-09-21T08:18:43.661Z,14.96
2022-09-21T08:21:12.311Z,15.28
2022-09-21T08:23:42.824Z,15.15
2022-09-21T08:26:16.377Z,15.27
2022-09-21T08:28:44.430Z,15.14
2022-09-21T08:31:12.328Z,15.49
2022-09-21T08:33:40.249Z,15.43
2022-09-21T08:36:10.176Z,15.66
2022-09-21T08:38:39.226Z,15.91
2022-09-21T08:41:16.312Z,15.71
2022-09-21T08:43:45.303Z,15.89
2022-09-21T08:46:16.498Z,15.69
2022-09-21T08:48:47.114Z,16.02
2022-09-21T08:51:22.800Z,15.93
2022-09-21T08:53:53.204Z,16.20
2022-09-21T08:56:21.993Z,15.80
2022-09-21T08:58:49.923Z,15.89
2022-09-21T09:01:35.524Z,16.52
2022-09-21T09:04:28.318Z,16.49
2022-09-21T09:07:05.714Z,16.49
2022-09-21T09:09:45.339Z,16.84
2022-09-21T09:12:21.551Z,16.80
2022-09-21T09:15:15.990Z,16.84
2022-09-21T09:17:50.437Z,16.99
2022-09-21T09:20:21.153Z,16.80
2022-09-21T09:22:57.240Z,17.00
2022-09-21T09:25:25.558Z,17.13
2022-09-21T09:27:55.091Z,17.05
2022-09-21T09:30:25.606Z,17.34
2022-09-21T09:32:57.868Z,17.10
2022-09-21T09:35:30.348Z,17.31
2022-09-21T09:38:05.902Z,16.74
2022-09-21T09:40:49.642Z,16.84
2022-09-21T09:43:26.635Z,17.14
2022-09-21T09:46:03.127Z,17.29
2022-09-21T09:48:55.588Z,16.99
2022-09-21T09:51:23.681Z,17.21
2022-09-21T09:53:53.022Z,17.20
2022-09-21T09:56:20.862Z,18.00
2022-09-21T09:58:50.902Z,17.46
2022-09-21T10:01:39.069Z,16.98
2022-09-21T10:04:08.459Z,17.08
2022-09-21T10:06:38.617Z,17.12
2022-09-21T10:09:23.598Z,17.19
2022-09-21T10:11:52.794Z,18.05
2022-09-21T10:14:22.970Z,17.09
2022-09-21T10:16:52.638Z,17.23
2022-09-21T10:19:23.167Z,17.20
2022-09-21T10:21:55.663Z,18.02
2022-09-21T10:24:27.313Z,17.95
2022-09-21T10:26:56.789Z,17.50
2022-09-21T10:29:33.545Z,17.39
2022-09-21T10:32:02.849Z,17.49
2022-09-21T10:34:31.784Z,17.52
2022-09-21T10:37:02.021Z,17.83
2022-09-21T10:39:31.868Z,17.74
2022-09-21T10:42:04.956Z,17.76
2022-09-21T10:44:39.900Z,17.64
2022-09-21T10:47:22.467Z,17.57
2022-09-21T10:49:52.494Z,17.57
2022-09-21T10:52:24.143Z,17.54
2022-09-21T10:54:56.345Z,17.54
2022-09-21T10:57:25.752Z,17.68
2022-09-21T10:59:53.896Z,17.76
2022-09-21T11:02:35.381Z,17.97
2022-09-21T11:05:09.635Z,17.88
2022-09-21T11:07:40.976Z,18.13
2022-09-21T11:10:17.781Z,18.30
2022-09-21T11:12:54.342Z,18.34
2022-09-21T11:15:30.748Z,18.00
2022-09-21T11:18:06.035Z,18.00
2022-09-21T11:20:40.667Z,18.10
2022-09-21T11:23:19.894Z,17.68
2022-09-21T11:25:53.839Z,17.68
2022-09-21T11:28:25.546Z,18.07
2022-09-21T11:31:23.656Z,17.98
2022-09-21T11:34:06.040Z,18.11
2022-09-21T11:36:41.204Z,17.83
2022-09-21T11:39:14.161Z,17.80
2022-09-21T11:41:51.580Z,18.01
2022-09-21T11:44:32.818Z,18.02
2022-09-21T11:47:08.459Z,18.01
2022-09-21T11:49:47.731Z,17.93
2022-09-21T11:52:26.297Z,17.82
2022-09-21T11:55:17.215Z,18.08
2022-09-21T11:57:54.988Z,17.99
2022-09-21T12:00:25.034Z,18.18
2022-09-21T12:03:28.721Z,18.12
2022-09-21T12:06:14.947Z,18.09
2022-09-21T12:09:04.173Z,17.98
2022-09-21T12:11:37.994Z,17.86
2022-09-21T12:14:15.661Z,18.13
2022-09-21T12:16:46.880Z,17.95
2022-09-21T12:19:23.930Z,17.73
2022-09-21T12:21:54.579Z,18.08
2022-09-21T12:24:28.537Z,18.10
2022-09-21T12:27:04.479Z,17.90
2022-09-21T12:29:37.307Z,17.94
2022-09-21T12:32:09.541Z,18.18
2022-09-21T12:34:42.074Z,18.08
2022-09-21T12:37:14.885Z,18.06
2022-09-21T12:39:46.252Z,18.24
2022-09-21T12:42:24.809Z,18.12
2022-09-21T12:44:57.786Z,18.10
2022-09-21T12:47:42.513Z,18.08
2022-09-21T12:50:19.275Z,18.16
2022-09-21T12:52:47.195Z,18.07
2022-09-21T12:55:25.503Z,18.16
2022-09-21T12:58:15.136Z,18.07
2022-09-21T13:00:50.996Z,17.95
2022-09-21T13:03:22.903Z,17.80
2022-09-21T13:06:14.428Z,17.76
2022-09-21T13:08:47.084Z,17.74
2022-09-21T13:11:21.007Z,17.77
2022-09-21T13:13:51.286Z,17.95
2022-09-21T13:16:28.908Z,17.80
2022-09-21T13:18:58.085Z,17.99
2022-09-21T13:21:29.830Z,17.91
2022-09-21T13:24:00.685Z,17.68
2022-09-21T13:26:35.721Z,17.68
2022-09-21T13:29:29.768Z,17.68
2022-09-21T13:32:00.398Z,17.84
2022-09-21T13:34:30.965Z,17.69
2022-09-21T13:37:31.032Z,17.74
2022-09-21T13:40:38.685Z,17.72
2022-09-21T13:43:48.000Z,18.00
2022-09-21T13:46:50.069Z,17.91
2022-09-21T13:49:23.952Z,18.02
2022-09-21T13:51:53.631Z,17.98
2022-09-21T13:54:23.845Z,18.02
2022-09-21T13:57:05.882Z,18.12
2022-09-21T13:59:38.793Z,18.26
2022-09-21T14:02:19.537Z,18.13
2022-09-21T14:04:50.616Z,18.29
2022-09-21T14:07:18.912Z,18.09
2022-09-21T14:09:55.232Z,18.15
2022-09-21T14:12:26.859Z,18.02
2022-09-21T14:15:27.159Z,18.12
2022-09-21T14:18:21.439Z,18.17
2022-09-21T14:21:17.176Z,18.25
2022-09-21T14:24:11.079Z,18.38
2022-09-21T14:26:50.340Z,18.23
2022-09-21T14:29:27.132Z,18.29
2022-09-21T14:31:57.566Z,18.35
2022-09-21T14:34:27.580Z,18.22
2022-09-21T14:36:59.671Z,18.23
2022-09-21T14:39:31.969Z,18.36
2022-09-21T14:42:03.665Z,18.30
2022-09-21T14:44:32.724Z,18.35
2022-09-21T14:47:10.104Z,18.36
2022-09-21T14:49:48.154Z,18.31
2022-09-21T14:52:32.178Z,18.24
2022-09-21T14:55:09.137Z,18.51
2022-09-21T14:57:57.636Z,18.48
2022-09-21T15:00:36.602Z,18.46
2022-09-21T15:03:35.681Z,18.30
2022-09-21T15:06:31.429Z,18.42
2022-09-21T15:09:35.200Z,18.31
2022-09-21T15:12:09.921Z,18.37
2022-09-21T15:14:40.290Z,18.35
2022-09-21T15:17:24.075Z,18.54
2022-09-21T15:19:52.049Z,18.57
2022-09-21T15:22:21.673Z,18.55
2022-09-21T15:24:52.521Z,18.58
2022-09-21T15:27:21.296Z,18.44
2022-09-21T15:29:51.014Z,18.47
2022-09-21T15:32:26.813Z,18.38
2022-09-21T15:35:01.239Z,18.35
2022-09-21T15:37:30.428Z,18.38
2022-09-21T15:40:05.050Z,18.38
2022-09-21T15:42:33.373Z,18.40
2022-09-21T15:45:13.938Z,18.44
2022-09-21T15:47:44.865Z,18.37
2022-09-21T15:50:14.209Z,18.25
2022-09-21T15:52:46.481Z,18.27
2022-09-21T15:55:21.353Z,18.46
2022-09-21T15:57:50.504Z,18.52
2022-09-21T16:00:24.174Z,18.45
2022-09-21T16:03:07.406Z,18.44
2022-09-21T16:05:45.309Z,18.27
2022-09-21T16:08:27.354Z,18.28
2022-09-21T16:11:13.287Z,18.27
2022-09-21T16:14:10.598Z,18.37
2022-09-21T16:17:20.296Z,18.21
2022-09-21T16:20:11.175Z,18.19
2022-09-21T16:22:41.033Z,18.24
2022-09-21T16:25:22.275Z,18.29
2022-09-21T16:27:53.798Z,18.23
2022-09-21T16:30:46.037Z,18.24
2022-09-21T16:33:40.856Z,18.10
2022-09-21T16:36:39.350Z,18.15
2022-09-21T16:39:14.969Z,18.21
2022-09-21T16:41:52.854Z,18.13
2022-09-21T16:44:25.950Z,18.06
2022-09-21T16:46:56.574Z,18.09
2022-09-21T16:49:30.242Z,18.06
2022-09-21T16:51:59.292Z,18.07
2022-09-21T16:54:27.460Z,18.01
2022-09-21T16:56:57.776Z,17.94
2022-09-21T16:59:27.759Z,17.94
2022-09-21T17:01:56.894Z,18.00
2022-09-21T17:04:28.375Z,17.90
2022-09-21T17:06:56.696Z,17.89
2022-09-21T17:09:29.520Z,17.87
2022-09-21T17:12:01.102Z,17.87
2022-09-21T17:14:35.276Z,17.84
2022-09-21T17:17:13.881Z,17.82
2022-09-21T17:19:42.022Z,17.90
2022-09-21T17:22:17.267Z,17.84
2022-09-21T17:24:50.926Z,17.76
2022-09-21T17:27:21.460Z,17.78
2022-09-21T17:29:53.536Z,17.70
2022-09-21T17:32:22.605Z,17.73
2022-09-21T17:34:56.177Z,17.69
2022-09-21T17:37:24.134Z,17.67
2022-09-21T17:39:53.472Z,17.65
2022-09-21T17:42:25.129Z,17.65
2022-09-21T17:45:04.850Z,17.64
2022-09-21T17:47:34.409Z,17.67
2022-09-21T17:50:14.317Z,17.68
2022-09-21T17:53:04.444Z,17.74
2022-09-21T17:55:32.727Z,17.75
2022-09-21T17:58:09.890Z,17.70
2022-09-21T18:00:46.812Z,17.69
2022-09-21T18:03:22.262Z,17.71
2022-09-21T18:05:51.466Z,17.65
2022-09-21T18:08:19.836Z,17.64
2022-09-21T18:10:56.992Z,17.64
2022-09-21T18:13:29.953Z,17.70
2022-09-21T18:16:10.114Z,17.63
2022-09-21T18:18:45.131Z,17.45
2022-09-21T18:21:18.211Z,17.38
2022-09-21T18:24:07.112Z,17.30
2022-09-21T18:26:35.529Z,17.28
2022-09-21T18:29:28.521Z,17.21
2022-09-21T18:32:07.359Z,17.23
2022-09-21T18:34:50.989Z,17.23
2022-09-21T18:37:25.103Z,17.25
2022-09-21T18:39:58.564Z,17.15
2022-09-21T18:42:39.954Z,17.16
2022-09-21T18:45:14.144Z,17.18
2022-09-21T18:47:48.171Z,17.12
2022-09-21T18:50:23.074Z,17.12
2022-09-21T18:52:55.818Z,17.14
2022-09-21T18:55:27.690Z,17.07
2022-09-21T18:57:57.097Z,17.00
2022-09-21T19:00:31.442Z,16.98
2022-09-21T19:03:17.192Z,16.90
2022-09-21T19:05:54.669Z,16.88
2022-09-21T19:08:26.630Z,16.80
2022-09-21T19:10:56.385Z,16.81
2022-09-21T19:13:37.917Z,16.71
2022-09-21T19:16:13.734Z,16.73
2022-09-21T19:18:47.693Z,16.78
2022-09-21T19:21:26.708Z,16.78
2022-09-21T19:24:04.851Z,16.68
2022-09-21T19:26:34.755Z,16.62
2022-09-21T19:29:27.813Z,16.55
2022-09-21T19:31:55.760Z,16.51
2022-09-21T19:34:25.252Z,16.50
2022-09-21T19:36:53.769Z,16.45
2022-09-21T19:39:22.073Z,16.36
2022-09-21T19:41:59.461Z,16.28
2022-09-21T19:44:50.035Z,16.40
2022-09-21T19:47:25.523Z,16.32
2022-09-21T19:49:56.084Z,16.35
2022-09-21T19:52:30.566Z,16.17
2022-09-21T19:55:16.344Z,16.20
2022-09-21T19:58:01.677Z,16.31
2022-09-21T20:00:32.869Z,16.18
2022-09-21T20:03:04.767Z,15.99
2022-09-21T20:05:41.910Z,16.06
2022-09-21T20:08:15.206Z,16.08
2022-09-21T20:10:53.785Z,16.08
2022-09-21T20:13:31.112Z,16.05
2022-09-21T20:16:04.051Z,15.86
2022-09-21T20:18:41.625Z,15.92
2022-09-21T20:21:14.760Z,15.82
2022-09-21T20:23:42.974Z,15.94
2022-09-21T20:26:19.716Z,16.04
2022-09-21T20:28:47.964Z,16.02
2022-09-21T20:31:16.292Z,16.12
2022-09-21T20:33:44.040Z,16.07
2022-09-21T20:36:13.161Z,16.00
2022-09-21T20:38:40.864Z,15.92
2022-09-21T20:41:11.263Z,15.92
2022-09-21T20:43:39.296Z,15.96
2022-09-21T20:46:07.354Z,15.92
2022-09-21T20:48:36.534Z,15.81
2022-09-21T20:51:05.999Z,15.90
2022-09-21T20:53:35.305Z,15.85
2022-09-21T20:56:04.613Z,15.88
2022-09-21T20:58:33.698Z,15.84
2022-09-21T21:01:05.340Z,15.87
2022-09-21T21:03:33.716Z,15.89
2022-09-21T21:06:09.560Z,15.91
2022-09-21T21:08:38.691Z,15.88
2022-09-21T21:11:06.598Z,15.88
2022-09-21T21:13:34.465Z,15.81
2022-09-21T21:16:07.077Z,15.84
2022-09-21T21:18:39.979Z,15.77
2022-09-21T21:21:08.099Z,15.65
2022-09-21T21:23:56.649Z,15.61
2022-09-21T21:26:43.803Z,15.57
2022-09-21T21:29:11.917Z,15.43
2022-09-21T21:31:39.778Z,15.19
2022-09-21T21:34:07.608Z,15.27
2022-09-21T21:36:35.361Z,15.25
2022-09-21T21:39:04.576Z,15.32
2022-09-21T21:41:33.761Z,15.09
2022-09-21T21:44:03.075Z,15.08
2022-09-21T21:46:30.858Z,15.16
2022-09-21T21:48:58.604Z,15.03
2022-09-21T21:51:26.471Z,15.17
2022-09-21T21:53:54.193Z,15.21
2022-09-21T21:56:23.072Z,15.15
2022-09-21T21:58:54.390Z,15.08
2022-09-21T22:01:24.563Z,15.08
2022-09-21T22:03:54.222Z,15.11
2022-09-21T22:06:22.166Z,15.13
2022-09-21T22:08:50.245Z,15.20
2022-09-21T22:11:18.697Z,15.11
2022-09-21T22:13:46.890Z,15.15
2022-09-21T22:16:17.148Z,15.23
2022-09-21T22:18:45.312Z,15.14
2022-09-21T22:21:14.688Z,15.13
2022-09-21T22:23:42.448Z,15.22
2022-09-21T22:26:12.116Z,15.13
2022-09-21T22:28:40.736Z,15.09
2022-09-21T22:31:10.012Z,15.14
2022-09-21T22:33:39.787Z,15.13
2022-09-21T22:36:09.620Z,14.90
2022-09-21T22:38:42.590Z,15.02
2022-09-21T22:41:13.491Z,15.02
2022-09-21T22:43:41.506Z,15.09
2022-09-21T22:46:09.600Z,15.03
2022-09-21T22:48:38.736Z,15.13
2022-09-21T22:51:06.746Z,15.00
2022-09-21T22:53:34.488Z,14.96
2022-09-21T22:56:04.600Z,14.90
2022-09-21T22:58:32.920Z,14.97
2022-09-21T23:01:06.445Z,15.03
2022-09-21T23:03:34.753Z,15.00
2022-09-21T23:06:05.309Z,15.01
2022-09-21T23:08:33.950Z,14.97
2022-09-21T23:11:09.601Z,15.01
2022-09-21T23:13:38.227Z,15.02
2022-09-21T23:16:07.707Z,14.87
2022-09-21T23:18:36.059Z,14.86
2022-09-21T23:21:07.432Z,14.85
2022-09-21T23:23:35.542Z,14.76
2022-09-21T23:26:06.779Z,14.55
2022-09-21T23:28:35.608Z,14.47
2022-09-21T23:31:05.583Z,14.43
2022-09-21T23:33:35.309Z,14.43
2022-09-21T23:36:03.770Z,14.56
2022-09-21T23:38:33.472Z,14.50
2022-09-21T23:41:03.661Z,14.48
2022-09-21T23:43:31.640Z,14.49
2022-09-21T23:45:59.949Z,14.45
2022-09-21T23:48:27.825Z,14.38
2022-09-21T23:50:56.137Z,14.37
2022-09-21T23:53:25.093Z,14.34
2022-09-21T23:55:54.520Z,14.26
2022-09-21T23:58:22.500Z,14.31
